createdAt,value
2022-11-05T00:00:13.616Z,4.85
2022-11-05T00:03:34.470Z,4.88
2022-11-05T00:06:54.468Z,4.40
2022-11-05T00:10:07.214Z,4.75
2022-11-05T00:13:29.412Z,4.90
2022-11-05T00:16:49.355Z,4.97
2022-11-05T00:19:51.157Z,4.97
2022-11-05T00:23:19.357Z,5.53
2022-11-05T00:26:21.086Z,5.57
2022-11-05T00:29:22.768Z,4.57
2022-11-05T00:32:24.517Z,4.28
2022-11-05T00:35:26.333Z,4.32
2022-11-05T00:38:29.856Z,4.25
2022-11-05T00:41:31.590Z,4.40
2022-11-05T00:44:51.759Z,4.82
2022-11-05T00:48:11.844Z,4.07
2022-11-05T00:51:13.779Z,3.77
2022-11-05T00:54:15.508Z,3.25
2022-11-05T00:57:17.241Z,4.35
2022-11-05T01:00:19.064Z,5.25
2022-11-05T01:03:27.453Z,3.72
2022-11-05T01:06:28.968Z,4.05
2022-11-05T01:09:30.740Z,3.83
2022-11-05T01:12:32.494Z,3.33
2022-11-05T01:15:35.798Z,3.45
2022-11-05T01:18:38.996Z,3.38
2022-11-05T01:21:40.687Z,4.07
2022-11-05T01:24:42.527Z,3.35
2022-11-05T01:27:44.678Z,3.53
2022-11-05T01:30:46.480Z,3.35
2022-11-05T01:33:48.823Z,3.33
2022-11-05T01:36:50.471Z,3.17
2022-11-05T01:39:52.190Z,2.92
2022-11-05T01:42:53.941Z,3.25
2022-11-05T01:45:59.053Z,2.88
2022-11-05T01:49:10.595Z,3.30
2022-11-05T01:52:12.418Z,3.00
2022-11-05T01:55:19.810Z,3.25
2022-11-05T01:58:23.941Z,3.08
2022-11-05T02:01:26.014Z,2.10
2022-11-05T02:04:32.738Z,3.00
2022-11-05T02:07:34.561Z,2.83
2022-11-05T02:10:36.380Z,2.80
2022-11-05T02:13:37.952Z,2.53
2022-11-05T02:17:04.326Z,2.67
2022-11-05T02:20:37.329Z,2.08
2022-11-05T02:24:12.585Z,2.67
2022-11-05T02:27:20.499Z,2.45
2022-11-05T02:30:41.287Z,2.80
2022-11-05T02:34:23.928Z,2.20
2022-11-05T02:37:34.456Z,2.88
2022-11-05T02:41:13.297Z,2.80
2022-11-05T02:44:31.178Z,2.88
2022-11-05T02:47:59.171Z,2.30
2022-11-05T02:51:32.479Z,2.55
2022-11-05T02:54:45.382Z,2.30
2022-11-05T02:57:48.128Z,2.20
2022-11-05T03:00:55.357Z,2.65
2022-11-05T03:04:03.327Z,2.30
2022-11-05T03:07:22.274Z,2.40
2022-11-05T03:10:31.896Z,2.70
2022-11-05T03:13:52.527Z,2.20
2022-11-05T03:17:09.941Z,2.42
2022-11-05T03:20:39.877Z,2.47
2022-11-05T03:24:03.513Z,2.10
2022-11-05T03:27:11.336Z,2.83
2022-11-05T03:30:16.019Z,1.80
2022-11-05T03:33:23.928Z,1.80
2022-11-05T03:36:32.528Z,1.95
2022-11-05T03:39:40.711Z,1.95
2022-11-05T03:42:46.973Z,1.67
2022-11-05T03:45:55.990Z,2.20
2022-11-05T03:49:01.867Z,1.98
2022-11-05T03:52:09.449Z,1.77
2022-11-05T03:55:11.337Z,2.00
2022-11-05T03:58:14.128Z,1.90
2022-11-05T04:01:16.650Z,2.03
2022-11-05T04:04:18.596Z,1.95
2022-11-05T04:07:39.447Z,1.75
2022-11-05T04:10:59.609Z,1.70
2022-11-05T04:14:01.319Z,2.13
2022-11-05T04:17:09.752Z,2.92
2022-11-05T04:20:30.306Z,2.10
2022-11-05T04:23:52.224Z,1.40
2022-11-05T04:26:53.990Z,1.55
2022-11-05T04:30:13.956Z,1.70
2022-11-05T04:33:17.094Z,2.10
2022-11-05T04:36:19.736Z,1.98
2022-11-05T04:39:21.692Z,1.77
2022-11-05T04:42:23.436Z,1.40
2022-11-05T04:45:28.191Z,1.70
2022-11-05T04:48:30.089Z,1.80
2022-11-05T04:51:31.959Z,1.33
2022-11-05T04:54:33.824Z,1.40
2022-11-05T04:57:35.921Z,1.48
2022-11-05T05:00:37.668Z,1.52
2022-11-05T05:03:39.546Z,1.52
2022-11-05T05:06:41.503Z,1.40
2022-11-05T05:09:43.125Z,1.15
2022-11-05T05:12:44.893Z,1.20
2022-11-05T05:15:46.622Z,1.10
2022-11-05T05:18:49.412Z,1.30
2022-11-05T05:21:51.138Z,1.50
2022-11-05T05:24:53.214Z,1.30
2022-11-05T05:27:58.208Z,1.65
2022-11-05T05:31:00.685Z,1.02
2022-11-05T05:34:02.902Z,1.20
2022-11-05T05:37:04.628Z,1.17
2022-11-05T05:40:07.013Z,1.02
2022-11-05T05:43:08.875Z,1.40
2022-11-05T05:46:13.153Z,1.45
2022-11-05T05:49:14.958Z,1.35
2022-11-05T05:52:16.713Z,1.40
2022-11-05T05:55:18.470Z,1.40
2022-11-05T05:58:20.130Z,1.33
2022-11-05T06:01:21.910Z,1.50
2022-11-05T06:04:24.220Z,1.70
2022-11-05T06:07:26.041Z,1.42
2022-11-05T06:10:28.003Z,1.45
2022-11-05T06:13:30.303Z,1.60
2022-11-05T06:16:36.159Z,1.60
2022-11-05T06:19:38.105Z,1.98
2022-11-05T06:22:40.122Z,1.60
2022-11-05T06:25:42.040Z,1.90
2022-11-05T06:28:44.710Z,1.63
2022-11-05T06:31:47.292Z,1.80
2022-11-05T06:34:48.943Z,2.05
2022-11-05T06:37:50.540Z,2.15
2022-11-05T06:40:52.150Z,1.90
2022-11-05T06:43:53.955Z,2.30
2022-11-05T06:46:55.591Z,2.50
2022-11-05T06:49:57.443Z,2.30
2022-11-05T06:53:01.645Z,2.40
2022-11-05T06:56:07.522Z,2.60
2022-11-05T06:59:09.211Z,2.25
2022-11-05T07:02:12.486Z,2.55
2022-11-05T07:05:16.664Z,2.83
2022-11-05T07:08:18.472Z,2.50
2022-11-05T07:11:20.393Z,2.50
2022-11-05T07:14:22.138Z,2.55
2022-11-05T07:17:24.064Z,3.10
2022-11-05T07:20:32.318Z,2.58
2022-11-05T07:23:35.486Z,2.15
2022-11-05T07:26:37.485Z,2.42
2022-11-05T07:29:39.385Z,2.63
2022-11-05T07:32:41.510Z,3.00
2022-11-05T07:35:44.094Z,2.50
2022-11-05T07:38:46.099Z,3.10
2022-11-05T07:41:48.091Z,3.42
2022-11-05T07:44:49.936Z,3.97
2022-11-05T07:48:05.634Z,3.97
2022-11-05T07:51:07.498Z,3.67
2022-11-05T07:54:09.338Z,4.07
2022-11-05T07:57:11.403Z,4.18
2022-11-05T08:00:16.350Z,3.83
2022-11-05T08:03:19.213Z,4.00
2022-11-05T08:06:21.409Z,4.57
2022-11-05T08:09:23.270Z,4.07
2022-11-05T08:12:25.038Z,4.50
2022-11-05T08:15:26.608Z,5.38
2022-11-05T08:18:35.988Z,4.50
2022-11-05T08:21:37.632Z,4.20
2022-11-05T08:24:39.520Z,4.70
2022-11-05T08:27:41.293Z,4.45
2022-11-05T08:30:43.195Z,4.43
2022-11-05T08:33:44.872Z,4.15
2022-11-05T08:36:47.204Z,4.55
2022-11-05T08:39:48.998Z,4.90
2022-11-05T08:42:50.848Z,4.50
2022-11-05T08:45:52.977Z,3.25
2022-11-05T08:48:54.729Z,3.70
2022-11-05T08:51:56.297Z,4.20
2022-11-05T08:54:58.029Z,3.72
2022-11-05T08:58:10.778Z,3.90
2022-11-05T09:01:12.632Z,4.30
2022-11-05T09:04:14.540Z,3.95
2022-11-05T09:07:16.542Z,4.28
2022-11-05T09:10:18.476Z,4.65
2022-11-05T09:13:20.753Z,4.07
2022-11-05T09:16:25.725Z,4.65
2022-11-05T09:19:27.318Z,3.67
2022-11-05T09:22:29.567Z,4.30
2022-11-05T09:25:32.539Z,4.18
2022-11-05T09:28:34.365Z,4.15
2022-11-05T09:31:36.173Z,4.80
2022-11-05T09:34:37.885Z,4.45
2022-11-05T09:37:39.752Z,4.00
2022-11-05T09:41:21.487Z,3.97
2022-11-05T09:44:52.487Z,3.90
2022-11-05T09:51:00.328Z,4.35
2022-11-05T09:54:02.486Z,4.68
2022-11-05T09:57:11.466Z,4.60
2022-11-05T10:00:16.883Z,5.68
2022-11-05T10:03:27.475Z,5.18
2022-11-05T10:06:29.444Z,5.38
2022-11-05T10:09:47.869Z,6.38
2022-11-05T10:13:01.009Z,6.00
2022-11-05T10:16:12.516Z,5.50
2022-11-05T10:19:24.751Z,5.63
2022-11-05T10:22:26.645Z,5.90
2022-11-05T10:25:33.763Z,5.63
2022-11-05T10:28:35.913Z,5.70
2022-11-05T10:31:38.146Z,5.93
2022-11-05T10:34:40.379Z,5.88
2022-11-05T10:37:42.118Z,6.50
2022-11-05T10:40:46.768Z,6.40
2022-11-05T10:43:57.593Z,5.50
2022-11-05T10:47:23.873Z,5.82
2022-11-05T10:50:29.646Z,5.30
2022-11-05T10:53:35.129Z,6.28
2022-11-05T10:56:39.492Z,6.72
2022-11-05T10:59:41.541Z,6.45
2022-11-05T11:02:48.095Z,6.40
2022-11-05T11:05:58.057Z,6.50
2022-11-05T11:09:03.869Z,6.63
2022-11-05T11:12:13.978Z,6.32
2022-11-05T11:15:27.511Z,6.63
2022-11-05T11:18:40.054Z,6.25
2022-11-05T11:21:42.289Z,6.45
2022-11-05T11:24:50.065Z,6.95
2022-11-05T11:27:53.130Z,6.07
2022-11-05T11:31:14.470Z,6.03
2022-11-05T11:34:39.092Z,6.68
2022-11-05T11:37:42.323Z,6.28
2022-11-05T11:40:45.537Z,6.30
2022-11-05T11:43:47.653Z,5.60
2022-11-05T11:46:52.378Z,5.90
2022-11-05T11:49:57.219Z,6.28
2022-11-05T11:53:18.013Z,5.95
2022-11-05T11:56:21.738Z,5.82
2022-11-05T11:59:53.917Z,6.38
2022-11-05T12:03:07.416Z,6.65
2022-11-05T12:06:31.887Z,6.55
2022-11-05T12:10:01.310Z,6.47
2022-11-05T12:13:24.409Z,7.13
2022-11-05T12:16:36.722Z,6.75
2022-11-05T12:20:00.446Z,7.93
2022-11-05T12:23:46.686Z,7.28
2022-11-05T12:27:03.178Z,7.05
2022-11-05T12:30:23.609Z,7.78
2022-11-05T12:33:37.110Z,7.32
2022-11-05T12:36:52.866Z,7.60
2022-11-05T12:40:13.149Z,7.05
2022-11-05T12:43:35.190Z,7.10
2022-11-05T12:47:14.282Z,6.55
2022-11-05T12:50:43.857Z,7.72
2022-11-05T12:54:20.814Z,5.88
2022-11-05T12:57:23.357Z,5.63
2022-11-05T13:00:30.697Z,6.40
2022-11-05T13:03:48.158Z,6.20
2022-11-05T13:06:56.298Z,6.20
2022-11-05T13:10:19.010Z,7.03
2022-11-05T13:13:37.287Z,6.38
2022-11-05T13:16:45.088Z,5.50
2022-11-05T13:20:03.383Z,5.18
2022-11-05T13:23:31.390Z,6.10
2022-11-05T13:26:47.361Z,5.40
2022-11-05T13:29:53.139Z,5.70
2022-11-05T13:33:03.370Z,5.20
2022-11-05T13:36:51.729Z,6.47
2022-11-05T13:39:55.617Z,5.50
2022-11-05T13:43:09.652Z,6.05
2022-11-05T13:46:24.171Z,5.28
2022-11-05T13:49:54.024Z,4.68
2022-11-05T13:53:23.338Z,4.70
2022-11-05T13:56:43.670Z,3.90
2022-11-05T14:00:18.095Z,4.57
2022-11-05T14:03:21.569Z,3.45
2022-11-05T14:06:36.331Z,3.72
2022-11-05T14:09:40.529Z,3.95
2022-11-05T14:12:48.565Z,3.40
2022-11-05T14:16:09.076Z,3.67
2022-11-05T14:19:34.698Z,3.50
2022-11-05T14:22:41.701Z,3.90
2022-11-05T14:25:43.798Z,4.22
2022-11-05T14:28:51.422Z,3.88
2022-11-05T14:32:09.585Z,3.63
2022-11-05T14:35:19.667Z,3.63
2022-11-05T14:38:25.377Z,3.40
2022-11-05T14:41:27.737Z,3.65
2022-11-05T14:44:32.694Z,4.00
2022-11-05T14:47:40.761Z,4.13
2022-11-05T14:50:42.948Z,4.30
2022-11-05T14:53:45.320Z,4.38
2022-11-05T14:56:56.365Z,4.75
2022-11-05T15:00:00.831Z,4.35
2022-11-05T15:03:24.671Z,3.97
2022-11-05T15:06:35.340Z,3.38
2022-11-05T15:09:43.197Z,3.40
2022-11-05T15:12:50.420Z,3.10
2022-11-05T15:15:52.658Z,3.75
2022-11-05T15:18:56.832Z,5.45
2022-11-05T15:22:03.589Z,5.70
2022-11-05T15:25:14.569Z,4.78
2022-11-05T15:28:41.700Z,3.97
2022-11-05T15:31:45.432Z,4.60
2022-11-05T15:34:55.004Z,3.78
2022-11-05T15:38:02.095Z,4.07
2022-11-05T15:41:37.273Z,3.30
2022-11-05T15:44:41.851Z,3.40
2022-11-05T15:47:46.373Z,3.05
2022-11-05T15:50:48.327Z,2.88
2022-11-05T15:57:28.804Z,3.78
2022-11-05T16:00:33.976Z,3.25
2022-11-05T16:03:39.499Z,2.80
2022-11-05T16:06:45.238Z,3.33
2022-11-05T16:10:01.896Z,3.17
2022-11-05T16:13:28.458Z,2.60
2022-11-05T16:16:36.433Z,2.70
2022-11-05T16:19:42.008Z,2.50
2022-11-05T16:23:19.237Z,2.40
2022-11-05T16:30:01.289Z,2.50
2022-11-05T16:33:06.099Z,2.40
2022-11-05T16:36:08.855Z,2.40
2022-11-05T16:39:10.629Z,2.60
2022-11-05T16:42:24.688Z,2.75
2022-11-05T16:45:26.650Z,2.38
2022-11-05T16:48:28.949Z,2.38
2022-11-05T16:51:31.104Z,2.65
2022-11-05T16:54:33.056Z,2.63
2022-11-05T16:57:35.058Z,2.90
2022-11-05T17:00:37.152Z,2.92
2022-11-05T17:03:39.036Z,3.00
2022-11-05T17:06:41.003Z,3.03
2022-11-05T17:09:42.869Z,2.75
2022-11-05T17:12:45.058Z,2.90
2022-11-05T17:15:49.706Z,2.80
2022-11-05T17:18:51.462Z,3.05
2022-11-05T17:21:54.429Z,3.03
2022-11-05T17:24:56.238Z,2.90
2022-11-05T17:27:58.912Z,2.97
2022-11-05T17:31:02.081Z,2.55
2022-11-05T17:34:04.169Z,2.83
2022-11-05T17:37:05.989Z,2.75
2022-11-05T17:40:10.973Z,2.65
2022-11-05T17:43:12.919Z,2.65
2022-11-05T17:46:17.067Z,2.70
2022-11-05T17:49:18.837Z,3.10
2022-11-05T17:52:20.639Z,3.38
2022-11-05T17:55:22.385Z,3.10
2022-11-05T17:58:24.158Z,2.67
2022-11-05T18:01:32.028Z,2.85
2022-11-05T18:04:34.139Z,2.97
2022-11-05T18:07:35.867Z,2.95
2022-11-05T18:10:38.990Z,2.97
2022-11-05T18:13:40.881Z,3.25
2022-11-05T18:16:42.801Z,2.83
2022-11-05T18:19:44.552Z,2.97
2022-11-05T18:22:49.698Z,2.92
2022-11-05T18:25:51.741Z,2.60
2022-11-05T18:28:53.569Z,3.25
2022-11-05T18:31:55.389Z,2.60
2022-11-05T18:34:57.498Z,3.03
2022-11-05T18:37:59.457Z,3.17
2022-11-05T18:41:06.679Z,2.53
2022-11-05T18:44:08.786Z,2.97
2022-11-05T18:47:10.809Z,2.95
2022-11-05T18:50:12.981Z,3.08
2022-11-05T18:53:14.759Z,3.22
2022-11-05T18:56:18.939Z,3.20
2022-11-05T18:59:39.144Z,2.83
2022-11-05T19:02:42.941Z,2.90
2022-11-05T19:05:44.878Z,3.05
2022-11-05T19:08:47.220Z,3.20
2022-11-05T19:11:49.253Z,3.63
2022-11-05T19:14:51.157Z,3.53
2022-11-05T19:17:53.243Z,3.80
2022-11-05T19:20:55.870Z,3.70
2022-11-05T19:24:01.559Z,3.63
2022-11-05T19:27:03.626Z,3.00
2022-11-05T19:30:06.650Z,3.60
2022-11-05T19:33:08.305Z,3.20
2022-11-05T19:36:11.120Z,3.28
2022-11-05T19:39:14.443Z,3.70
2022-11-05T19:42:16.329Z,3.35
2022-11-05T19:45:42.806Z,3.47
2022-11-05T19:48:40.749Z,3.08
2022-11-05T19:51:42.810Z,2.90
2022-11-05T19:54:46.242Z,3.20
2022-11-05T19:57:48.428Z,2.50
2022-11-05T20:00:50.291Z,2.80
2022-11-05T20:03:53.769Z,2.42
2022-11-05T20:06:55.636Z,2.67
2022-11-05T20:09:57.344Z,2.70
2022-11-05T20:12:59.177Z,2.55
2022-11-05T20:16:01.075Z,2.60
2022-11-05T20:19:04.978Z,3.35
2022-11-05T20:22:06.759Z,2.92
2022-11-05T20:25:09.238Z,2.80
2022-11-05T20:28:11.317Z,2.65
2022-11-05T20:31:15.320Z,3.08
2022-11-05T20:34:17.227Z,2.85
2022-11-05T20:37:19.524Z,2.63
2022-11-05T20:40:21.603Z,2.75
2022-11-05T20:43:27.598Z,3.00
2022-11-05T20:46:33.162Z,2.88
2022-11-05T20:49:35.095Z,2.80
2022-11-05T20:52:37.033Z,2.25
2022-11-05T20:55:48.958Z,2.60
2022-11-05T20:58:51.506Z,2.20
2022-11-05T21:01:53.452Z,2.50
2022-11-05T21:04:55.232Z,2.22
2022-11-05T21:07:57.566Z,2.17
2022-11-05T21:10:59.647Z,2.33
2022-11-05T21:14:01.316Z,2.40
2022-11-05T21:17:03.880Z,2.08
2022-11-05T21:20:06.278Z,2.70
2022-11-05T21:23:08.363Z,2.78
2022-11-05T21:26:14.574Z,2.47
2022-11-05T21:29:17.378Z,2.28
2022-11-05T21:32:19.609Z,2.50
2022-11-05T21:35:21.317Z,1.90
2022-11-05T21:38:23.895Z,2.00
2022-11-05T21:41:26.179Z,2.10
2022-11-05T21:44:28.251Z,2.25
2022-11-05T21:47:30.589Z,2.35
2022-11-05T21:50:51.119Z,2.17
2022-11-05T21:54:11.632Z,2.15
2022-11-05T21:57:38.136Z,2.35
2022-11-05T22:00:39.776Z,2.35
2022-11-05T22:03:41.501Z,2.20
2022-11-05T22:06:43.368Z,2.45
2022-11-05T22:09:45.180Z,2.30
2022-11-05T22:12:48.144Z,2.20
2022-11-05T22:15:56.580Z,2.42
2022-11-05T22:18:59.228Z,2.47
2022-11-05T22:22:01.586Z,2.30
2022-11-05T22:25:04.498Z,2.42
2022-11-05T22:28:06.267Z,2.42
2022-11-05T22:31:17.509Z,2.50
2022-11-05T22:34:19.584Z,2.10
2022-11-05T22:37:21.314Z,2.40
2022-11-05T22:40:24.146Z,2.10
2022-11-05T22:43:26.158Z,2.35
2022-11-05T22:46:27.948Z,2.30
2022-11-05T22:49:29.769Z,2.22
2022-11-05T22:52:32.842Z,2.88
2022-11-05T22:55:39.628Z,2.20
2022-11-05T22:58:41.908Z,2.30
2022-11-05T23:01:45.170Z,2.53
2022-11-05T23:04:47.187Z,2.13
2022-11-05T23:08:07.611Z,2.33
2022-11-05T23:11:38.421Z,2.30
2022-11-05T23:14:40.100Z,2.45
2022-11-05T23:18:00.227Z,2.25
2022-11-05T23:21:23.213Z,2.13
2022-11-05T23:24:25.063Z,2.00
2022-11-05T23:27:34.948Z,2.33
2022-11-05T23:31:01.271Z,2.27
2022-11-05T23:34:03.134Z,2.20
2022-11-05T23:37:23.780Z,2.20
2022-11-05T23:40:51.752Z,2.33
2022-11-05T23:44:12.683Z,2.38
2022-11-05T23:47:33.072Z,2.50
2022-11-05T23:50:39.573Z,2.42
2022-11-05T23:53:42.143Z,2.25
2022-11-05T23:56:44.017Z,2.47
2022-11-05T23:59:45.863Z,2.35
